createdAt,value
2022-11-24T00:01:29.754Z,5.95
2022-11-24T00:03:59.922Z,6.85
2022-11-24T00:06:28.271Z,4.75
2022-11-24T00:08:58.619Z,5.65
2022-11-24T00:11:28.521Z,5.63
2022-11-24T00:13:57.228Z,5.70
2022-11-24T00:16:28.246Z,5.80
2022-11-24T00:18:58.422Z,4.43
2022-11-24T00:21:28.009Z,4.35
2022-11-24T00:23:56.489Z,4.75
2022-11-24T00:26:26.435Z,5.45
2022-11-24T00:28:56.028Z,7.18
2022-11-24T00:31:27.268Z,5.68
2022-11-24T00:33:57.172Z,5.20
2022-11-24T00:36:26.861Z,5.03
2022-11-24T00:38:56.108Z,5.28
2022-11-24T00:41:24.935Z,4.60
2022-11-24T00:43:53.039Z,5.25
2022-11-24T00:46:21.553Z,5.65
2022-11-24T00:48:51.210Z,5.55
2022-11-24T00:51:20.540Z,5.38
2022-11-24T00:53:49.096Z,5.60
2022-11-24T00:56:17.470Z,6.35
2022-11-24T00:58:45.486Z,5.75
2022-11-24T01:01:16.127Z,5.20
2022-11-24T01:03:44.676Z,5.88
2022-11-24T01:06:15.812Z,6.68
2022-11-24T01:08:44.579Z,5.60
2022-11-24T01:11:14.934Z,6.22
2022-11-24T01:13:44.311Z,6.32
2022-11-24T01:16:17.276Z,5.97
2022-11-24T01:18:45.575Z,5.60
2022-11-24T01:21:15.407Z,5.13
2022-11-24T01:23:43.811Z,5.85
2022-11-24T01:26:14.112Z,5.47
2022-11-24T01:28:46.986Z,6.50
2022-11-24T01:31:16.644Z,5.30
2022-11-24T01:33:44.758Z,5.07
2022-11-24T01:36:14.577Z,5.10
2022-11-24T01:38:42.619Z,5.00
2022-11-24T01:41:14.211Z,5.38
2022-11-24T01:43:42.487Z,5.45
2022-11-24T01:46:18.892Z,4.82
2022-11-24T01:48:50.516Z,4.72
2022-11-24T01:51:24.666Z,5.88
2022-11-24T01:53:57.808Z,4.80
2022-11-24T01:56:26.601Z,5.18
2022-11-24T01:58:58.615Z,5.28
2022-11-24T02:01:27.003Z,4.88
2022-11-24T02:03:55.134Z,5.22
2022-11-24T02:06:28.157Z,5.78
2022-11-24T02:08:59.737Z,5.45
2022-11-24T02:11:31.471Z,5.72
2022-11-24T02:13:59.957Z,6.15
2022-11-24T02:16:28.196Z,6.03
2022-11-24T02:18:56.266Z,5.22
2022-11-24T02:21:25.670Z,5.60
2022-11-24T02:24:01.309Z,7.18
2022-11-24T02:26:45.023Z,8.30
2022-11-24T02:29:15.033Z,6.30
2022-11-24T02:31:46.856Z,6.10
2022-11-24T02:34:14.840Z,5.72
2022-11-24T02:36:42.821Z,5.13
2022-11-24T02:39:12.345Z,4.53
2022-11-24T02:41:44.390Z,5.07
2022-11-24T02:44:14.446Z,5.75
2022-11-24T02:46:42.650Z,5.35
2022-11-24T02:49:10.690Z,5.55
2022-11-24T02:51:38.697Z,5.35
2022-11-24T02:54:06.775Z,5.28
2022-11-24T02:56:34.781Z,5.05
2022-11-24T02:59:04.128Z,5.93
2022-11-24T03:01:32.172Z,5.25
2022-11-24T03:04:01.506Z,6.70
2022-11-24T03:06:29.511Z,5.50
2022-11-24T03:08:57.522Z,6.95
2022-11-24T03:11:25.539Z,5.78
2022-11-24T03:13:53.785Z,6.40
2022-11-24T03:16:25.508Z,5.15
2022-11-24T03:18:53.912Z,4.90
2022-11-24T03:21:22.000Z,5.22
2022-11-24T03:23:50.215Z,6.10
2022-11-24T03:26:20.395Z,6.88
2022-11-24T03:28:48.623Z,7.55
2022-11-24T03:31:16.740Z,7.38
2022-11-24T03:33:46.080Z,7.47
2022-11-24T03:36:14.112Z,6.75
2022-11-24T03:38:42.107Z,6.40
2022-11-24T03:41:10.416Z,7.20
2022-11-24T03:43:43.483Z,8.50
2022-11-24T03:46:12.595Z,8.57
2022-11-24T03:48:41.055Z,5.90
2022-11-24T03:51:11.460Z,5.05
2022-11-24T03:53:39.679Z,4.50
2022-11-24T03:56:08.657Z,4.22
2022-11-24T03:58:36.829Z,5.07
2022-11-24T04:01:04.913Z,4.13
2022-11-24T04:03:32.953Z,4.85
2022-11-24T04:06:00.959Z,4.85
2022-11-24T04:08:30.297Z,4.18
2022-11-24T04:10:58.278Z,4.88
2022-11-24T04:13:26.021Z,4.65
2022-11-24T04:15:54.541Z,5.35
2022-11-24T04:18:23.244Z,5.68
2022-11-24T04:20:52.420Z,5.70
2022-11-24T04:23:20.959Z,5.72
2022-11-24T04:25:50.319Z,5.68
2022-11-24T04:28:18.325Z,4.57
2022-11-24T04:30:46.356Z,5.93
2022-11-24T04:33:14.477Z,5.57
2022-11-24T04:35:42.514Z,4.97
2022-11-24T04:38:10.555Z,5.07
2022-11-24T04:40:38.746Z,5.53
2022-11-24T04:43:08.087Z,6.00
2022-11-24T04:45:36.261Z,4.13
2022-11-24T04:48:04.599Z,5.45
2022-11-24T04:50:32.637Z,4.22
2022-11-24T04:53:00.615Z,5.82
2022-11-24T04:55:28.644Z,5.65
2022-11-24T04:57:56.667Z,5.15
2022-11-24T05:00:26.069Z,5.78
2022-11-24T05:02:54.039Z,5.47
2022-11-24T05:05:25.203Z,5.72
2022-11-24T05:07:53.220Z,5.22
2022-11-24T05:10:44.268Z,5.80
2022-11-24T05:13:13.756Z,6.22
2022-11-24T05:15:43.448Z,7.38
2022-11-24T05:18:15.185Z,6.50
2022-11-24T05:20:44.583Z,6.20
2022-11-24T05:23:12.713Z,6.22
2022-11-24T05:25:47.479Z,5.90
2022-11-24T05:28:16.062Z,6.43
2022-11-24T05:30:45.909Z,6.82
2022-11-24T05:33:18.859Z,6.80
2022-11-24T05:35:46.918Z,7.53
2022-11-24T05:38:15.393Z,5.13
2022-11-24T05:40:43.874Z,5.70
2022-11-24T05:43:12.345Z,6.55
2022-11-24T05:45:43.000Z,6.45
2022-11-24T05:48:14.991Z,6.35
2022-11-24T05:50:46.500Z,6.97
2022-11-24T05:53:14.718Z,8.70
2022-11-24T05:55:43.108Z,6.63
2022-11-24T05:58:11.324Z,7.50
2022-11-24T06:00:40.844Z,6.50
2022-11-24T06:03:09.807Z,6.07
2022-11-24T06:05:39.313Z,5.55
2022-11-24T06:08:07.321Z,6.18
2022-11-24T06:10:35.294Z,6.68
2022-11-24T06:13:07.128Z,7.07
2022-11-24T06:15:37.501Z,7.65
2022-11-24T06:18:05.729Z,7.35
2022-11-24T06:20:34.889Z,6.80
2022-11-24T06:23:04.190Z,6.53
2022-11-24T06:25:32.306Z,7.65
2022-11-24T06:28:03.575Z,6.40
2022-11-24T06:30:31.582Z,6.25
2022-11-24T06:33:00.889Z,7.38
2022-11-24T06:35:28.866Z,6.63
2022-11-24T06:37:57.150Z,8.70
2022-11-24T06:40:26.491Z,8.25
2022-11-24T06:42:54.500Z,8.98
2022-11-24T06:45:25.661Z,9.23
2022-11-24T06:47:54.827Z,7.78
2022-11-24T06:50:30.578Z,8.93
2022-11-24T06:53:03.684Z,7.45
2022-11-24T06:55:32.956Z,8.15
2022-11-24T06:58:01.115Z,7.82
2022-11-24T07:00:32.040Z,7.35
2022-11-24T07:03:00.101Z,9.82
2022-11-24T07:05:28.212Z,7.57
2022-11-24T07:07:56.284Z,8.52
2022-11-24T07:10:24.355Z,8.93
2022-11-24T07:12:53.645Z,8.80
2022-11-24T07:15:21.639Z,7.78
2022-11-24T07:17:49.718Z,6.05
2022-11-24T07:20:18.250Z,8.23
2022-11-24T07:22:46.239Z,7.60
2022-11-24T07:25:14.571Z,8.55
2022-11-24T07:27:42.795Z,7.32
2022-11-24T07:30:12.768Z,10.60
2022-11-24T07:32:40.750Z,8.52
2022-11-24T07:35:09.294Z,7.57
2022-11-24T07:37:37.508Z,8.65
2022-11-24T07:40:06.430Z,8.80
2022-11-24T07:42:34.462Z,8.90
2022-11-24T07:45:02.458Z,9.48
2022-11-24T07:47:31.742Z,7.93
2022-11-24T07:49:59.726Z,7.63
2022-11-24T07:52:27.661Z,8.52
2022-11-24T07:54:55.621Z,7.53
2022-11-24T07:57:23.676Z,7.78
2022-11-24T07:59:51.614Z,7.78
2022-11-24T08:02:20.895Z,5.95
2022-11-24T08:04:50.186Z,8.05
2022-11-24T08:07:18.231Z,7.90
2022-11-24T08:09:46.284Z,7.88
2022-11-24T08:12:14.250Z,7.85
2022-11-24T08:14:42.230Z,7.47
2022-11-24T08:17:10.311Z,8.20
2022-11-24T08:19:39.283Z,7.78
2022-11-24T08:22:08.572Z,7.10
2022-11-24T08:24:36.840Z,7.40
2022-11-24T08:27:05.189Z,7.53
2022-11-24T08:29:33.249Z,8.80
2022-11-24T08:32:03.585Z,9.80
2022-11-24T08:34:34.651Z,7.70
2022-11-24T08:37:04.465Z,7.97
2022-11-24T08:39:34.087Z,7.97
2022-11-24T08:42:02.085Z,8.63
2022-11-24T08:44:30.047Z,8.38
2022-11-24T08:46:58.261Z,6.35
2022-11-24T08:49:26.351Z,7.88
2022-11-24T08:51:54.289Z,8.45
2022-11-24T08:54:22.648Z,7.47
2022-11-24T08:56:54.199Z,7.10
2022-11-24T08:59:22.185Z,7.80
2022-11-24T09:01:50.232Z,8.02
2022-11-24T09:04:18.244Z,7.38
2022-11-24T09:06:46.290Z,8.43
2022-11-24T09:09:14.348Z,7.70
2022-11-24T09:11:42.312Z,7.68
2022-11-24T09:14:11.600Z,5.75
2022-11-24T09:16:39.563Z,7.78
2022-11-24T09:19:08.606Z,7.88
2022-11-24T09:21:38.936Z,8.70
2022-11-24T09:24:08.286Z,8.40
2022-11-24T09:26:38.985Z,9.80
2022-11-24T09:29:08.935Z,8.65
2022-11-24T09:31:40.213Z,9.02
2022-11-24T09:34:11.854Z,11.68
2022-11-24T09:36:40.023Z,8.50
2022-11-24T09:39:08.518Z,9.10
2022-11-24T09:42:09.932Z,11.68
2022-11-24T09:45:08.402Z,10.07
2022-11-24T09:47:52.446Z,8.25
2022-11-24T09:50:23.430Z,10.18
2022-11-24T09:52:59.157Z,10.05
2022-11-24T09:55:33.567Z,10.57
2022-11-24T09:58:30.929Z,10.93
2022-11-24T10:01:03.000Z,8.88
2022-11-24T10:03:35.522Z,8.88
2022-11-24T10:06:10.873Z,10.15
2022-11-24T10:09:08.639Z,9.57
2022-11-24T10:11:43.029Z,9.70
2022-11-24T10:14:52.297Z,11.10
2022-11-24T10:17:34.687Z,10.00
2022-11-24T10:20:10.442Z,10.65
2022-11-24T10:22:49.805Z,9.27
2022-11-24T10:25:23.667Z,8.20
2022-11-24T10:27:59.822Z,8.95
2022-11-24T10:30:28.086Z,9.15
2022-11-24T10:32:59.177Z,9.70
2022-11-24T10:35:31.752Z,9.20
2022-11-24T10:38:07.827Z,9.05
2022-11-24T10:40:56.612Z,8.05
2022-11-24T10:43:27.867Z,10.35
2022-11-24T10:45:56.634Z,7.57
2022-11-24T10:48:27.070Z,9.32
2022-11-24T10:51:06.510Z,7.40
2022-11-24T10:53:36.475Z,8.85
2022-11-24T10:56:06.566Z,7.82
2022-11-24T10:58:38.440Z,7.75
2022-11-24T11:01:33.142Z,9.40
2022-11-24T11:04:01.577Z,7.75
2022-11-24T11:06:32.693Z,7.55
2022-11-24T11:09:19.530Z,9.27
2022-11-24T11:11:48.864Z,7.22
2022-11-24T11:14:30.968Z,8.45
2022-11-24T11:16:59.605Z,7.35
2022-11-24T11:19:56.915Z,11.88
2022-11-24T11:22:29.793Z,7.60
2022-11-24T11:25:20.897Z,12.00
2022-11-24T11:27:49.911Z,8.32
2022-11-24T11:36:15.558Z,8.05
2022-11-24T11:38:46.713Z,8.93
2022-11-24T11:41:20.789Z,11.27
2022-11-24T11:43:53.652Z,8.93
2022-11-24T11:46:22.245Z,10.90
2022-11-24T11:48:50.363Z,9.23
2022-11-24T11:51:33.167Z,9.85
2022-11-24T11:54:10.363Z,9.30
2022-11-24T11:56:44.286Z,8.60
2022-11-24T11:59:33.557Z,8.75
2022-11-24T12:02:39.575Z,8.55
2022-11-24T12:05:16.884Z,10.68
2022-11-24T12:07:55.778Z,10.65
2022-11-24T12:10:34.713Z,8.30
2022-11-24T12:13:17.822Z,8.85
2022-11-24T12:15:49.323Z,9.50
2022-11-24T12:18:55.886Z,10.35
2022-11-24T12:21:24.597Z,9.50
2022-11-24T12:24:04.752Z,9.10
2022-11-24T12:26:42.852Z,9.43
2022-11-24T12:29:35.890Z,10.52
2022-11-24T12:32:12.772Z,9.00
2022-11-24T12:34:52.432Z,8.38
2022-11-24T12:37:46.525Z,9.05
2022-11-24T12:40:18.271Z,10.73
2022-11-24T12:43:00.040Z,11.95
2022-11-24T12:45:34.361Z,8.85
2022-11-24T12:48:31.450Z,10.38
2022-11-24T12:51:01.249Z,8.77
2022-11-24T12:53:31.782Z,8.75
2022-11-24T12:56:07.424Z,10.10
2022-11-24T12:58:45.617Z,9.70
2022-11-24T13:01:19.248Z,10.63
2022-11-24T13:03:59.709Z,10.02
2022-11-24T13:06:36.446Z,9.50
2022-11-24T13:09:09.974Z,9.18
2022-11-24T13:11:45.104Z,9.32
2022-11-24T13:14:19.003Z,9.00
2022-11-24T13:19:43.905Z,4.43
2022-11-24T13:22:17.992Z,1.42
2022-11-24T13:24:46.142Z,4.25
2022-11-24T13:27:41.550Z,3.35
2022-11-24T13:30:53.083Z,4.18
2022-11-24T13:33:36.075Z,3.92
2022-11-24T13:36:32.085Z,2.90
2022-11-24T13:39:01.466Z,3.83
2022-11-24T13:42:42.992Z,3.83
2022-11-24T13:45:00.437Z,3.50
2022-11-24T13:47:37.901Z,3.50
2022-11-24T13:50:21.911Z,3.67
2022-11-24T13:52:57.926Z,3.45
2022-11-24T13:55:33.429Z,4.75
2022-11-24T13:58:28.202Z,4.68
2022-11-24T14:01:07.826Z,4.50
2022-11-24T14:03:39.775Z,4.13
2022-11-24T14:06:18.026Z,6.25
2022-11-24T14:08:47.889Z,4.53
2022-11-24T14:11:18.066Z,4.43
2022-11-24T14:13:46.171Z,4.20
2022-11-24T14:16:17.863Z,4.90
2022-11-24T14:18:47.775Z,4.13
2022-11-24T14:21:29.318Z,3.78
2022-11-24T14:24:00.508Z,3.25
2022-11-24T14:26:33.573Z,3.33
2022-11-24T14:29:07.155Z,4.18
2022-11-24T14:31:35.197Z,3.88
2022-11-24T14:34:15.958Z,3.10
2022-11-24T14:36:45.352Z,3.33
2022-11-24T14:39:14.854Z,3.72
2022-11-24T14:41:50.560Z,4.32
2022-11-24T14:44:21.815Z,3.35
2022-11-24T14:46:49.995Z,4.30
2022-11-24T14:49:20.133Z,3.53
2022-11-24T14:51:56.246Z,4.30
2022-11-24T14:54:25.536Z,4.80
2022-11-24T14:57:04.123Z,4.15
2022-11-24T14:59:34.813Z,4.22
2022-11-24T15:02:05.044Z,4.18
2022-11-24T15:07:27.164Z,4.30
2022-11-24T15:09:57.707Z,3.72
2022-11-24T15:12:29.031Z,4.18
2022-11-24T15:15:01.195Z,4.38
2022-11-24T15:17:30.640Z,3.53
2022-11-24T15:20:01.726Z,3.47
2022-11-24T15:22:36.939Z,4.50
2022-11-24T15:25:32.590Z,4.07
2022-11-24T15:28:00.966Z,4.20
2022-11-24T15:30:36.440Z,3.47
2022-11-24T15:33:12.610Z,4.60
2022-11-24T15:35:40.592Z,3.65
2022-11-24T15:38:10.073Z,5.07
2022-11-24T15:40:38.432Z,4.72
2022-11-24T15:43:18.841Z,4.93
2022-11-24T15:45:46.805Z,5.63
2022-11-24T15:48:17.880Z,4.95
2022-11-24T15:50:46.607Z,5.60
2022-11-24T15:53:20.460Z,4.90
2022-11-24T15:55:48.642Z,4.95
2022-11-24T15:58:16.918Z,4.55
2022-11-24T16:00:46.024Z,4.22
2022-11-24T16:03:45.234Z,4.60
2022-11-24T16:06:02.147Z,4.53
2022-11-24T16:08:32.583Z,6.07
2022-11-24T16:11:00.570Z,4.97
2022-11-24T16:13:28.609Z,4.97
2022-11-24T16:15:56.644Z,4.53
2022-11-24T16:18:24.562Z,4.03
2022-11-24T16:20:52.584Z,4.38
2022-11-24T16:23:21.383Z,5.35
2022-11-24T16:25:50.760Z,5.30
2022-11-24T16:28:22.245Z,4.22
2022-11-24T16:30:50.686Z,5.35
2022-11-24T16:33:21.914Z,4.45
2022-11-24T16:35:50.076Z,4.40
2022-11-24T16:38:20.018Z,4.32
2022-11-24T16:40:53.325Z,5.05
2022-11-24T16:43:21.370Z,4.90
2022-11-24T16:46:00.877Z,4.38
2022-11-24T16:48:29.127Z,5.28
2022-11-24T16:50:57.094Z,4.40
2022-11-24T16:53:27.337Z,4.63
2022-11-24T16:55:59.188Z,3.92
2022-11-24T16:58:27.156Z,3.80
2022-11-24T17:00:55.367Z,4.68
2022-11-24T17:03:23.599Z,4.65
2022-11-24T17:05:57.953Z,4.00
2022-11-24T17:08:25.893Z,4.32
2022-11-24T17:10:54.038Z,4.25
2022-11-24T17:13:24.190Z,4.63
2022-11-24T17:15:54.265Z,5.85
2022-11-24T17:18:25.785Z,4.80
2022-11-24T17:20:53.822Z,5.00
2022-11-24T17:23:21.785Z,4.55
2022-11-24T17:25:49.700Z,4.63
2022-11-24T17:28:17.778Z,5.00
2022-11-24T17:30:48.622Z,5.10
2022-11-24T17:33:17.416Z,4.80
2022-11-24T17:35:47.526Z,5.13
2022-11-24T17:38:15.486Z,4.78
2022-11-24T17:40:47.921Z,4.30
2022-11-24T17:43:15.921Z,4.28
2022-11-24T17:45:45.437Z,5.90
2022-11-24T17:48:14.785Z,4.43
2022-11-24T17:50:42.741Z,5.40
2022-11-24T17:53:13.358Z,5.68
2022-11-24T17:55:42.003Z,6.70
2022-11-24T17:58:09.941Z,5.93
2022-11-24T18:00:37.918Z,5.78
2022-11-24T18:03:06.376Z,6.18
2022-11-24T18:05:38.598Z,5.10
2022-11-24T18:08:08.288Z,5.20
2022-11-24T18:10:36.236Z,5.13
2022-11-24T18:13:04.169Z,7.05
2022-11-24T18:15:34.346Z,6.03
2022-11-24T18:18:02.666Z,6.40
2022-11-24T18:20:32.727Z,6.57
2022-11-24T18:23:06.291Z,6.38
2022-11-24T18:25:37.097Z,6.72
2022-11-24T18:28:08.267Z,5.15
2022-11-24T18:30:36.220Z,5.55
2022-11-24T18:33:04.290Z,7.68
2022-11-24T18:35:32.305Z,6.32
2022-11-24T18:38:01.825Z,7.55
2022-11-24T18:40:29.798Z,6.18
2022-11-24T18:42:57.812Z,10.13
2022-11-24T18:45:26.121Z,9.80
2022-11-24T18:47:54.147Z,9.35
2022-11-24T18:50:22.299Z,7.47
2022-11-24T18:52:50.428Z,6.47
2022-11-24T18:55:19.820Z,6.07
2022-11-24T18:57:47.813Z,6.50
2022-11-24T19:00:16.037Z,7.03
2022-11-24T19:02:44.508Z,8.75
2022-11-24T19:05:12.572Z,10.75
2022-11-24T19:07:40.618Z,9.02
2022-11-24T19:10:09.973Z,8.50
2022-11-24T19:12:39.570Z,7.57
2022-11-24T19:15:09.494Z,6.07
2022-11-24T19:17:38.798Z,5.93
2022-11-24T19:20:09.071Z,6.10
2022-11-24T19:22:37.046Z,4.65
2022-11-24T19:25:05.802Z,5.63
2022-11-24T19:27:34.522Z,5.35
2022-11-24T19:30:03.930Z,4.82
2022-11-24T19:32:32.365Z,5.50
2022-11-24T19:35:00.720Z,5.53
2022-11-24T19:37:29.133Z,5.22
2022-11-24T19:39:57.115Z,6.72
2022-11-24T19:42:25.173Z,6.85
2022-11-24T19:44:56.438Z,5.45
2022-11-24T19:47:29.695Z,7.07
2022-11-24T19:49:57.666Z,6.07
2022-11-24T19:52:26.066Z,5.88
2022-11-24T19:54:54.020Z,6.97
2022-11-24T19:57:21.957Z,7.05
2022-11-24T19:59:51.431Z,5.55
2022-11-24T20:02:19.444Z,8.63
2022-11-24T20:04:48.895Z,7.80
2022-11-24T20:07:16.922Z,8.85
2022-11-24T20:09:47.333Z,8.60
2022-11-24T20:12:15.398Z,11.65
2022-11-24T20:14:43.609Z,10.05
2022-11-24T20:17:13.098Z,11.35
2022-11-24T20:19:43.934Z,8.30
2022-11-24T20:22:13.234Z,10.32
2022-11-24T20:24:41.184Z,9.50
2022-11-24T20:27:09.108Z,9.10
2022-11-24T20:29:37.028Z,10.25
2022-11-24T20:32:05.152Z,9.48
2022-11-24T20:34:33.472Z,9.63
2022-11-24T20:37:01.548Z,10.30
2022-11-24T20:39:30.827Z,11.73
2022-11-24T20:41:59.152Z,9.45
2022-11-24T20:44:28.029Z,9.82
2022-11-24T20:46:58.106Z,8.02
2022-11-24T20:49:26.720Z,10.10
2022-11-24T20:51:57.021Z,9.30
2022-11-24T20:54:28.393Z,8.82
2022-11-24T20:56:57.754Z,11.73
2022-11-24T20:59:28.071Z,11.60
2022-11-24T21:01:57.040Z,10.63
2022-11-24T21:04:26.751Z,12.65
2022-11-24T21:06:54.861Z,12.57
2022-11-24T21:09:23.157Z,13.25
2022-11-24T21:11:51.058Z,12.15
2022-11-24T21:14:24.320Z,11.27
2022-11-24T21:16:52.325Z,12.65
2022-11-24T21:19:20.319Z,12.02
2022-11-24T21:21:51.567Z,11.73
2022-11-24T21:24:21.487Z,11.82
2022-11-24T21:26:51.709Z,12.18
2022-11-24T21:29:23.377Z,14.77
2022-11-24T21:31:51.464Z,14.35
2022-11-24T21:34:19.698Z,14.63
2022-11-24T21:36:47.711Z,13.75
2022-11-24T21:39:16.512Z,15.07
2022-11-24T21:41:44.808Z,12.20
2022-11-24T21:44:13.393Z,13.00
2022-11-24T21:46:48.205Z,14.40
2022-11-24T21:49:20.673Z,14.15
2022-11-24T21:51:55.000Z,12.77
2022-11-24T21:54:23.411Z,12.55
2022-11-24T21:56:51.372Z,13.38
2022-11-24T21:59:21.576Z,13.85
2022-11-24T22:01:50.920Z,12.98
2022-11-24T22:04:18.909Z,13.35
2022-11-24T22:06:46.870Z,11.98
2022-11-24T22:09:18.035Z,12.02
2022-11-24T22:11:46.582Z,11.88
2022-11-24T22:14:14.488Z,11.68
2022-11-24T22:16:42.521Z,15.23
2022-11-24T22:19:11.869Z,14.30
2022-11-24T22:21:39.814Z,14.82
2022-11-24T22:24:08.611Z,15.32
2022-11-24T22:26:36.747Z,11.25
2022-11-24T22:29:09.840Z,13.15
2022-11-24T22:31:37.855Z,11.35
2022-11-24T22:34:05.907Z,12.93
2022-11-24T22:36:36.579Z,13.35
2022-11-24T22:39:06.642Z,17.00
2022-11-24T22:41:36.351Z,12.10
2022-11-24T22:44:05.190Z,14.45
2022-11-24T22:46:33.675Z,15.10
2022-11-24T22:49:02.928Z,14.43
2022-11-24T22:51:32.888Z,13.90
2022-11-24T22:54:03.877Z,13.75
2022-11-24T22:56:32.719Z,13.25
2022-11-24T22:59:01.104Z,13.23
2022-11-24T23:01:30.805Z,13.65
2022-11-24T23:04:01.095Z,13.75
2022-11-24T23:06:30.961Z,11.25
2022-11-24T23:09:00.333Z,13.65
2022-11-24T23:11:37.243Z,13.60
2022-11-24T23:14:07.276Z,14.18
2022-11-24T23:16:35.508Z,15.07
2022-11-24T23:19:03.623Z,14.60
2022-11-24T23:21:33.271Z,14.02
2022-11-24T23:24:06.100Z,14.77
2022-11-24T23:26:37.772Z,13.32
2022-11-24T23:29:06.055Z,15.02
2022-11-24T23:31:34.187Z,14.75
2022-11-24T23:34:03.873Z,14.82
2022-11-24T23:36:32.810Z,16.85
2022-11-24T23:39:03.214Z,14.70
2022-11-24T23:41:32.356Z,15.23
2022-11-24T23:44:01.731Z,15.35
2022-11-24T23:46:29.699Z,18.40
2022-11-24T23:48:58.183Z,17.63
2022-11-24T23:51:28.029Z,14.75
2022-11-24T23:53:56.786Z,15.57
2022-11-24T23:56:26.519Z,15.68
2022-11-24T23:58:54.532Z,14.82
